sensor_id;sensor_type;location;lat;lon;timestamp;temperature;humidity
52979;DHT22;51106;53.186;6.598;2022-07-22T00:00:59;15.70;99.90
52979;DHT22;51106;53.186;6.598;2022-07-22T00:03:01;15.80;99.90
52979;DHT22;51106;53.186;6.598;2022-07-22T00:05:04;15.70;99.90
52979;DHT22;51106;53.186;6.598;2022-07-22T00:07:07;15.70;99.90
52979;DHT22;51106;53.186;6.598;2022-07-22T00:09:09;15.80;99.90
52979;DHT22;51106;53.186;6.598;2022-07-22T00:11:11;15.70;99.90
52979;DHT22;51106;53.186;6.598;2022-07-22T00:13:13;15.80;99.90
52979;DHT22;51106;53.186;6.598;2022-07-22T00:15:15;15.80;99.90
52979;DHT22;51106;53.186;6.598;2022-07-22T00:17:17;15.80;99.90
52979;DHT22;51106;53.186;6.598;2022-07-22T00:19:19;15.80;99.90
52979;DHT22;51106;53.186;6.598;2022-07-22T00:21:21;15.90;99.90
52979;DHT22;51106;53.186;6.598;2022-07-22T00:23:23;15.80;99.90
52979;DHT22;51106;53.186;6.598;2022-07-22T00:25:27;15.90;99.90
52979;DHT22;51106;53.186;6.598;2022-07-22T00:27:30;15.90;99.90
52979;DHT22;51106;53.186;6.598;2022-07-22T00:29:32;15.90;99.90
52979;DHT22;51106;53.186;6.598;2022-07-22T00:31:34;15.90;99.90
52979;DHT22;51106;53.186;6.598;2022-07-22T00:33:37;15.90;99.90
52979;DHT22;51106;53.186;6.598;2022-07-22T00:35:39;15.90;99.90
52979;DHT22;51106;53.186;6.598;2022-07-22T00:37:44;15.90;99.90
52979;DHT22;51106;53.186;6.598;2022-07-22T00:39:46;15.90;99.90
52979;DHT22;51106;53.186;6.598;2022-07-22T00:41:50;15.90;99.90
52979;DHT22;51106;53.186;6.598;2022-07-22T00:44:00;15.90;99.90
52979;DHT22;51106;53.186;6.598;2022-07-22T00:46:03;15.90;99.90
52979;DHT22;51106;53.186;6.598;2022-07-22T00:48:05;15.90;99.90
52979;DHT22;51106;53.186;6.598;2022-07-22T00:50:08;15.90;99.90
52979;DHT22;51106;53.186;6.598;2022-07-22T00:52:10;15.90;99.90
52979;DHT22;51106;53.186;6.598;2022-07-22T00:54:13;16.10;99.90
52979;DHT22;51106;53.186;6.598;2022-07-22T00:56:16;16.10;99.90
52979;DHT22;51106;53.186;6.598;2022-07-22T00:58:18;15.80;99.90
52979;DHT22;51106;53.186;6.598;2022-07-22T01:00:23;15.90;99.90
52979;DHT22;51106;53.186;6.598;2022-07-22T01:02:25;15.90;99.90
52979;DHT22;51106;53.186;6.598;2022-07-22T01:04:27;15.90;99.90
52979;DHT22;51106;53.186;6.598;2022-07-22T01:06:30;15.90;99.90
52979;DHT22;51106;53.186;6.598;2022-07-22T01:08:33;15.90;99.90
52979;DHT22;51106;53.186;6.598;2022-07-22T01:10:36;15.80;99.90
52979;DHT22;51106;53.186;6.598;2022-07-22T01:12:38;15.90;99.90
52979;DHT22;51106;53.186;6.598;2022-07-22T01:14:40;15.90;99.90
52979;DHT22;51106;53.186;6.598;2022-07-22T01:16:42;15.90;99.90
52979;DHT22;51106;53.186;6.598;2022-07-22T01:18:50;15.80;99.90
52979;DHT22;51106;53.186;6.598;2022-07-22T01:20:52;15.80;99.90
52979;DHT22;51106;53.186;6.598;2022-07-22T01:22:54;15.80;99.90
52979;DHT22;51106;53.186;6.598;2022-07-22T01:24:56;15.80;99.90
52979;DHT22;51106;53.186;6.598;2022-07-22T01:26:59;15.90;99.90
52979;DHT22;51106;53.186;6.598;2022-07-22T01:29:01;15.80;99.90
52979;DHT22;51106;53.186;6.598;2022-07-22T01:31:04;15.80;99.90
52979;DHT22;51106;53.186;6.598;2022-07-22T01:33:06;15.80;99.90
52979;DHT22;51106;53.186;6.598;2022-07-22T01:35:08;15.80;99.90
52979;DHT22;51106;53.186;6.598;2022-07-22T01:37:11;15.80;99.90
52979;DHT22;51106;53.186;6.598;2022-07-22T01:39:14;15.80;99.90
52979;DHT22;51106;53.186;6.598;2022-07-22T01:41:17;15.80;99.90
52979;DHT22;51106;53.186;6.598;2022-07-22T01:43:19;15.80;99.90
52979;DHT22;51106;53.186;6.598;2022-07-22T01:45:22;15.80;99.90
52979;DHT22;51106;53.186;6.598;2022-07-22T01:47:24;15.80;99.90
52979;DHT22;51106;53.186;6.598;2022-07-22T01:49:26;15.80;99.90
52979;DHT22;51106;53.186;6.598;2022-07-22T01:51:28;15.80;99.90
52979;DHT22;51106;53.186;6.598;2022-07-22T01:53:30;15.80;99.90
52979;DHT22;51106;53.186;6.598;2022-07-22T01:55:32;15.80;99.90
52979;DHT22;51106;53.186;6.598;2022-07-22T01:57:38;15.80;99.90
52979;DHT22;51106;53.186;6.598;2022-07-22T01:59:40;15.80;99.90
52979;DHT22;51106;53.186;6.598;2022-07-22T02:01:42;15.80;99.90
52979;DHT22;51106;53.186;6.598;2022-07-22T02:03:44;15.80;99.90
52979;DHT22;51106;53.186;6.598;2022-07-22T02:05:47;15.80;99.90
52979;DHT22;51106;53.186;6.598;2022-07-22T02:07:49;15.80;99.90
52979;DHT22;51106;53.186;6.598;2022-07-22T02:09:52;15.80;99.90
52979;DHT22;51106;53.186;6.598;2022-07-22T02:11:54;15.80;99.90
52979;DHT22;51106;53.186;6.598;2022-07-22T02:13:57;15.80;99.90
52979;DHT22;51106;53.186;6.598;2022-07-22T02:15:59;15.90;99.90
52979;DHT22;51106;53.186;6.598;2022-07-22T02:18:11;15.80;99.90
52979;DHT22;51106;53.186;6.598;2022-07-22T02:20:13;15.80;99.90
52979;DHT22;51106;53.186;6.598;2022-07-22T02:22:15;15.80;99.90
52979;DHT22;51106;53.186;6.598;2022-07-22T02:24:17;15.80;99.90
52979;DHT22;51106;53.186;6.598;2022-07-22T02:26:19;15.80;99.90
52979;DHT22;51106;53.186;6.598;2022-07-22T02:28:21;15.80;99.90
52979;DHT22;51106;53.186;6.598;2022-07-22T02:30:23;15.80;99.90
52979;DHT22;51106;53.186;6.598;2022-07-22T02:32:25;15.70;99.90
52979;DHT22;51106;53.186;6.598;2022-07-22T02:34:28;15.70;99.90
52979;DHT22;51106;53.186;6.598;2022-07-22T02:36:30;15.80;99.90
52979;DHT22;51106;53.186;6.598;2022-07-22T02:38:32;15.80;99.90
52979;DHT22;51106;53.186;6.598;2022-07-22T02:40:34;15.80;99.90
52979;DHT22;51106;53.186;6.598;2022-07-22T02:42:36;15.80;99.90
52979;DHT22;51106;53.186;6.598;2022-07-22T02:44:38;15.80;99.90
52979;DHT22;51106;53.186;6.598;2022-07-22T02:46:41;15.70;99.90
52979;DHT22;51106;53.186;6.598;2022-07-22T02:48:43;15.70;99.90
52979;DHT22;51106;53.186;6.598;2022-07-22T02:50:46;15.80;99.90
52979;DHT22;51106;53.186;6.598;2022-07-22T02:52:48;15.80;99.90
52979;DHT22;51106;53.186;6.598;2022-07-22T02:54:50;15.80;99.90
52979;DHT22;51106;53.186;6.598;2022-07-22T02:56:52;15.70;99.90
52979;DHT22;51106;53.186;6.598;2022-07-22T02:58:55;15.70;99.90
52979;DHT22;51106;53.186;6.598;2022-07-22T03:00:57;15.70;99.90
52979;DHT22;51106;53.186;6.598;2022-07-22T03:03:00;15.70;99.90
52979;DHT22;51106;53.186;6.598;2022-07-22T03:05:04;15.80;99.90
52979;DHT22;51106;53.186;6.598;2022-07-22T03:07:06;15.70;99.90
52979;DHT22;51106;53.186;6.598;2022-07-22T03:09:09;15.70;99.90
52979;DHT22;51106;53.186;6.598;2022-07-22T03:11:12;15.70;99.90
52979;DHT22;51106;53.186;6.598;2022-07-22T03:13:14;15.70;99.90
52979;DHT22;51106;53.186;6.598;2022-07-22T03:15:16;15.70;99.90
52979;DHT22;51106;53.186;6.598;2022-07-22T03:17:18;15.70;99.90
52979;DHT22;51106;53.186;6.598;2022-07-22T03:19:20;15.70;99.90
52979;DHT22;51106;53.186;6.598;2022-07-22T03:21:22;15.60;99.90
52979;DHT22;51106;53.186;6.598;2022-07-22T03:23:24;15.60;99.90
52979;DHT22;51106;53.186;6.598;2022-07-22T03:25:29;15.60;99.90
52979;DHT22;51106;53.186;6.598;2022-07-22T03:27:33;15.60;99.90
52979;DHT22;51106;53.186;6.598;2022-07-22T03:29:35;15.60;99.90
52979;DHT22;51106;53.186;6.598;2022-07-22T03:31:37;15.60;99.90
52979;DHT22;51106;53.186;6.598;2022-07-22T03:33:39;15.60;99.90
52979;DHT22;51106;53.186;6.598;2022-07-22T03:35:41;15.60;99.90
52979;DHT22;51106;53.186;6.598;2022-07-22T03:37:46;15.60;99.90
52979;DHT22;51106;53.186;6.598;2022-07-22T03:39:48;15.60;99.90
52979;DHT22;51106;53.186;6.598;2022-07-22T03:41:50;15.60;99.90
52979;DHT22;51106;53.186;6.598;2022-07-22T03:43:52;15.60;99.90
52979;DHT22;51106;53.186;6.598;2022-07-22T03:45:54;15.60;99.90
52979;DHT22;51106;53.186;6.598;2022-07-22T03:47:57;15.70;99.90
52979;DHT22;51106;53.186;6.598;2022-07-22T03:49:59;15.50;99.90
52979;DHT22;51106;53.186;6.598;2022-07-22T03:52:03;15.60;99.90
52979;DHT22;51106;53.186;6.598;2022-07-22T03:54:07;15.60;99.90
52979;DHT22;51106;53.186;6.598;2022-07-22T03:56:09;15.60;99.90
52979;DHT22;51106;53.186;6.598;2022-07-22T03:58:12;15.60;99.90
52979;DHT22;51106;53.186;6.598;2022-07-22T04:00:14;15.60;99.90
52979;DHT22;51106;53.186;6.598;2022-07-22T04:02:16;15.60;99.90
52979;DHT22;51106;53.186;6.598;2022-07-22T04:04:19;15.60;99.90
52979;DHT22;51106;53.186;6.598;2022-07-22T04:06:21;15.60;99.90
52979;DHT22;51106;53.186;6.598;2022-07-22T04:08:23;15.60;99.90
52979;DHT22;51106;53.186;6.598;2022-07-22T04:10:25;15.60;99.90
52979;DHT22;51106;53.186;6.598;2022-07-22T04:12:28;15.60;99.90
52979;DHT22;51106;53.186;6.598;2022-07-22T04:14:30;15.60;99.90
52979;DHT22;51106;53.186;6.598;2022-07-22T04:16:33;15.60;99.90
52979;DHT22;51106;53.186;6.598;2022-07-22T04:18:36;15.60;99.90
52979;DHT22;51106;53.186;6.598;2022-07-22T04:20:41;15.60;99.90
52979;DHT22;51106;53.186;6.598;2022-07-22T04:22:56;15.60;99.90
52979;DHT22;51106;53.186;6.598;2022-07-22T04:24:58;15.60;99.90
52979;DHT22;51106;53.186;6.598;2022-07-22T04:27:00;15.60;99.90
52979;DHT22;51106;53.186;6.598;2022-07-22T04:29:04;15.60;99.90
52979;DHT22;51106;53.186;6.598;2022-07-22T04:31:06;15.60;99.90
52979;DHT22;51106;53.186;6.598;2022-07-22T04:33:08;15.60;99.90
52979;DHT22;51106;53.186;6.598;2022-07-22T04:35:11;15.60;99.90
52979;DHT22;51106;53.186;6.598;2022-07-22T04:37:13;15.60;99.90
52979;DHT22;51106;53.186;6.598;2022-07-22T04:39:15;15.60;99.90
52979;DHT22;51106;53.186;6.598;2022-07-22T04:41:17;15.60;99.90
52979;DHT22;51106;53.186;6.598;2022-07-22T04:43:24;15.60;99.90
52979;DHT22;51106;53.186;6.598;2022-07-22T04:45:26;15.90;99.90
52979;DHT22;51106;53.186;6.598;2022-07-22T04:47:31;15.60;99.90
52979;DHT22;51106;53.186;6.598;2022-07-22T04:49:33;15.60;99.90
52979;DHT22;51106;53.186;6.598;2022-07-22T04:51:36;15.60;99.90
52979;DHT22;51106;53.186;6.598;2022-07-22T04:53:38;15.60;99.90
52979;DHT22;51106;53.186;6.598;2022-07-22T04:55:48;15.60;99.90
52979;DHT22;51106;53.186;6.598;2022-07-22T04:57:50;15.60;99.90
52979;DHT22;51106;53.186;6.598;2022-07-22T04:59:53;15.70;99.90
52979;DHT22;51106;53.186;6.598;2022-07-22T05:01:57;15.60;99.90
52979;DHT22;51106;53.186;6.598;2022-07-22T05:03:59;15.80;99.90
52979;DHT22;51106;53.186;6.598;2022-07-22T05:06:01;15.60;99.90
52979;DHT22;51106;53.186;6.598;2022-07-22T05:08:06;15.70;99.90
52979;DHT22;51106;53.186;6.598;2022-07-22T05:10:08;15.70;99.90
52979;DHT22;51106;53.186;6.598;2022-07-22T05:12:13;15.70;99.90
52979;DHT22;51106;53.186;6.598;2022-07-22T05:14:16;15.70;99.90
52979;DHT22;51106;53.186;6.598;2022-07-22T05:16:18;15.50;99.90
52979;DHT22;51106;53.186;6.598;2022-07-22T05:18:20;15.80;99.90
52979;DHT22;51106;53.186;6.598;2022-07-22T05:20:22;15.70;99.90
52979;DHT22;51106;53.186;6.598;2022-07-22T05:22:25;15.70;99.90
52979;DHT22;51106;53.186;6.598;2022-07-22T05:24:27;16.00;99.90
52979;DHT22;51106;53.186;6.598;2022-07-22T05:26:29;15.70;99.90
52979;DHT22;51106;53.186;6.598;2022-07-22T05:28:33;15.70;99.90
52979;DHT22;51106;53.186;6.598;2022-07-22T05:30:35;15.80;99.90
52979;DHT22;51106;53.186;6.598;2022-07-22T05:32:39;15.80;99.90
52979;DHT22;51106;53.186;6.598;2022-07-22T05:34:41;15.80;99.90
52979;DHT22;51106;53.186;6.598;2022-07-22T05:36:48;15.80;99.90
52979;DHT22;51106;53.186;6.598;2022-07-22T05:39:05;15.80;99.90
52979;DHT22;51106;53.186;6.598;2022-07-22T05:41:07;15.80;99.90
52979;DHT22;51106;53.186;6.598;2022-07-22T05:43:10;15.80;99.90
52979;DHT22;51106;53.186;6.598;2022-07-22T05:45:12;15.80;99.90
52979;DHT22;51106;53.186;6.598;2022-07-22T05:47:15;15.80;99.90
52979;DHT22;51106;53.186;6.598;2022-07-22T05:49:17;15.90;99.90
52979;DHT22;51106;53.186;6.598;2022-07-22T05:51:19;15.90;99.90
52979;DHT22;51106;53.186;6.598;2022-07-22T05:53:21;15.90;99.90
52979;DHT22;51106;53.186;6.598;2022-07-22T05:55:23;16.40;99.90
52979;DHT22;51106;53.186;6.598;2022-07-22T05:57:25;15.90;99.90
52979;DHT22;51106;53.186;6.598;2022-07-22T05:59:27;15.90;99.90
52979;DHT22;51106;53.186;6.598;2022-07-22T06:01:29;16.00;99.90
52979;DHT22;51106;53.186;6.598;2022-07-22T06:03:32;15.90;99.90
52979;DHT22;51106;53.186;6.598;2022-07-22T06:05:34;15.90;99.90
52979;DHT22;51106;53.186;6.598;2022-07-22T06:07:39;15.90;99.90
52979;DHT22;51106;53.186;6.598;2022-07-22T06:09:41;16.00;99.90
52979;DHT22;51106;53.186;6.598;2022-07-22T06:11:43;16.20;99.90
52979;DHT22;51106;53.186;6.598;2022-07-22T06:13:47;16.00;99.90
52979;DHT22;51106;53.186;6.598;2022-07-22T06:15:51;16.00;99.90
52979;DHT22;51106;53.186;6.598;2022-07-22T06:17:53;16.00;99.90
52979;DHT22;51106;53.186;6.598;2022-07-22T06:19:55;16.00;99.90
52979;DHT22;51106;53.186;6.598;2022-07-22T06:21:57;16.00;99.90
52979;DHT22;51106;53.186;6.598;2022-07-22T06:23:59;16.00;99.90
52979;DHT22;51106;53.186;6.598;2022-07-22T06:26:02;16.00;99.90
52979;DHT22;51106;53.186;6.598;2022-07-22T06:28:04;16.00;99.90
52979;DHT22;51106;53.186;6.598;2022-07-22T06:30:06;16.10;99.90
52979;DHT22;51106;53.186;6.598;2022-07-22T06:32:09;16.10;99.90
52979;DHT22;51106;53.186;6.598;2022-07-22T06:34:11;16.10;99.90
52979;DHT22;51106;53.186;6.598;2022-07-22T06:36:14;16.10;99.90
52979;DHT22;51106;53.186;6.598;2022-07-22T06:38:16;16.10;99.90
52979;DHT22;51106;53.186;6.598;2022-07-22T06:40:32;16.20;99.90
52979;DHT22;51106;53.186;6.598;2022-07-22T06:42:35;16.20;99.90
52979;DHT22;51106;53.186;6.598;2022-07-22T06:44:37;16.20;99.90
52979;DHT22;51106;53.186;6.598;2022-07-22T06:46:39;16.30;99.90
52979;DHT22;51106;53.186;6.598;2022-07-22T06:48:42;16.30;99.90
52979;DHT22;51106;53.186;6.598;2022-07-22T06:50:44;16.40;99.90
52979;DHT22;51106;53.186;6.598;2022-07-22T06:52:54;16.40;99.90
52979;DHT22;51106;53.186;6.598;2022-07-22T06:54:56;16.40;99.90
52979;DHT22;51106;53.186;6.598;2022-07-22T06:56:58;16.40;99.90
52979;DHT22;51106;53.186;6.598;2022-07-22T06:59:00;16.50;99.90
52979;DHT22;51106;53.186;6.598;2022-07-22T07:01:02;17.00;99.90
52979;DHT22;51106;53.186;6.598;2022-07-22T07:03:04;16.50;99.90
52979;DHT22;51106;53.186;6.598;2022-07-22T07:05:27;16.80;99.90
52979;DHT22;51106;53.186;6.598;2022-07-22T07:07:30;16.60;99.90
52979;DHT22;51106;53.186;6.598;2022-07-22T07:09:34;16.60;99.90
52979;DHT22;51106;53.186;6.598;2022-07-22T07:11:36;16.70;99.90
52979;DHT22;51106;53.186;6.598;2022-07-22T07:13:39;16.70;99.90
52979;DHT22;51106;53.186;6.598;2022-07-22T07:15:41;16.70;99.90
52979;DHT22;51106;53.186;6.598;2022-07-22T07:17:44;16.80;99.90
52979;DHT22;51106;53.186;6.598;2022-07-22T07:19:46;16.70;99.90
52979;DHT22;51106;53.186;6.598;2022-07-22T07:21:50;17.00;99.90
52979;DHT22;51106;53.186;6.598;2022-07-22T07:23:52;16.70;99.90
52979;DHT22;51106;53.186;6.598;2022-07-22T07:25:54;16.80;99.90
52979;DHT22;51106;53.186;6.598;2022-07-22T07:27:57;16.80;99.90
52979;DHT22;51106;53.186;6.598;2022-07-22T07:29:59;16.90;99.90
52979;DHT22;51106;53.186;6.598;2022-07-22T07:32:01;17.00;99.90
52979;DHT22;51106;53.186;6.598;2022-07-22T07:34:03;16.90;99.90
52979;DHT22;51106;53.186;6.598;2022-07-22T07:36:06;17.00;99.90
52979;DHT22;51106;53.186;6.598;2022-07-22T07:38:08;17.00;99.90
52979;DHT22;51106;53.186;6.598;2022-07-22T07:40:10;16.90;99.90
52979;DHT22;51106;53.186;6.598;2022-07-22T07:42:13;17.00;99.90
52979;DHT22;51106;53.186;6.598;2022-07-22T07:44:15;17.00;99.90
52979;DHT22;51106;53.186;6.598;2022-07-22T07:46:17;17.00;99.90
52979;DHT22;51106;53.186;6.598;2022-07-22T07:48:19;17.00;99.90
52979;DHT22;51106;53.186;6.598;2022-07-22T07:50:21;17.30;99.90
52979;DHT22;51106;53.186;6.598;2022-07-22T07:52:23;17.50;99.90
52979;DHT22;51106;53.186;6.598;2022-07-22T07:54:26;17.00;99.90
52979;DHT22;51106;53.186;6.598;2022-07-22T07:56:37;17.00;99.90
52979;DHT22;51106;53.186;6.598;2022-07-22T07:58:39;17.00;99.90
52979;DHT22;51106;53.186;6.598;2022-07-22T08:00:41;17.00;99.90
52979;DHT22;51106;53.186;6.598;2022-07-22T08:02:44;17.00;99.90
52979;DHT22;51106;53.186;6.598;2022-07-22T08:04:47;17.10;99.90
52979;DHT22;51106;53.186;6.598;2022-07-22T08:06:55;17.10;99.90
52979;DHT22;51106;53.186;6.598;2022-07-22T08:08:58;17.10;99.90
52979;DHT22;51106;53.186;6.598;2022-07-22T08:11:01;17.10;99.90
52979;DHT22;51106;53.186;6.598;2022-07-22T08:13:04;17.10;99.90
52979;DHT22;51106;53.186;6.598;2022-07-22T08:15:06;17.10;99.90
52979;DHT22;51106;53.186;6.598;2022-07-22T08:17:09;17.10;99.90
52979;DHT22;51106;53.186;6.598;2022-07-22T08:19:12;17.10;99.90
52979;DHT22;51106;53.186;6.598;2022-07-22T08:21:16;17.10;99.90
52979;DHT22;51106;53.186;6.598;2022-07-22T08:23:18;17.20;99.90
52979;DHT22;51106;53.186;6.598;2022-07-22T08:25:20;17.20;99.90
52979;DHT22;51106;53.186;6.598;2022-07-22T08:27:22;17.20;99.90
52979;DHT22;51106;53.186;6.598;2022-07-22T08:29:24;17.30;99.90
52979;DHT22;51106;53.186;6.598;2022-07-22T08:31:28;17.30;99.90
52979;DHT22;51106;53.186;6.598;2022-07-22T08:33:31;17.30;99.90
52979;DHT22;51106;53.186;6.598;2022-07-22T08:35:35;17.20;99.90
52979;DHT22;51106;53.186;6.598;2022-07-22T08:37:37;17.20;99.90
52979;DHT22;51106;53.186;6.598;2022-07-22T08:39:40;17.10;99.90
52979;DHT22;51106;53.186;6.598;2022-07-22T08:41:42;17.10;99.90
52979;DHT22;51106;53.186;6.598;2022-07-22T08:43:45;17.00;99.90
52979;DHT22;51106;53.186;6.598;2022-07-22T08:45:48;17.00;99.90
52979;DHT22;51106;53.186;6.598;2022-07-22T08:47:51;17.00;99.90
52979;DHT22;51106;53.186;6.598;2022-07-22T08:49:54;16.90;99.90
52979;DHT22;51106;53.186;6.598;2022-07-22T08:51:56;17.10;99.90
52979;DHT22;51106;53.186;6.598;2022-07-22T08:53:58;17.10;99.90
52979;DHT22;51106;53.186;6.598;2022-07-22T08:56:01;17.10;99.90
52979;DHT22;51106;53.186;6.598;2022-07-22T08:58:03;17.20;99.90
52979;DHT22;51106;53.186;6.598;2022-07-22T09:00:13;17.20;99.90
52979;DHT22;51106;53.186;6.598;2022-07-22T09:02:17;17.20;99.90
52979;DHT22;51106;53.186;6.598;2022-07-22T09:04:20;17.20;99.90
52979;DHT22;51106;53.186;6.598;2022-07-22T09:06:27;17.10;99.90
52979;DHT22;51106;53.186;6.598;2022-07-22T09:08:53;17.10;99.90
52979;DHT22;51106;53.186;6.598;2022-07-22T09:10:55;17.10;99.90
52979;DHT22;51106;53.186;6.598;2022-07-22T09:12:59;17.10;99.90
52979;DHT22;51106;53.186;6.598;2022-07-22T09:15:03;17.00;99.90
52979;DHT22;51106;53.186;6.598;2022-07-22T09:17:05;17.10;99.90
52979;DHT22;51106;53.186;6.598;2022-07-22T09:19:10;17.20;99.90
52979;DHT22;51106;53.186;6.598;2022-07-22T09:21:13;17.20;99.90
52979;DHT22;51106;53.186;6.598;2022-07-22T09:23:19;17.20;99.90
52979;DHT22;51106;53.186;6.598;2022-07-22T09:25:34;17.50;99.90
52979;DHT22;51106;53.186;6.598;2022-07-22T09:27:36;17.30;99.90
52979;DHT22;51106;53.186;6.598;2022-07-22T09:29:42;17.30;99.90
52979;DHT22;51106;53.186;6.598;2022-07-22T09:31:51;17.30;99.90
52979;DHT22;51106;53.186;6.598;2022-07-22T09:33:55;17.30;99.90
52979;DHT22;51106;53.186;6.598;2022-07-22T09:36:02;17.30;99.90
52979;DHT22;51106;53.186;6.598;2022-07-22T09:38:07;17.30;99.90
52979;DHT22;51106;53.186;6.598;2022-07-22T09:40:13;17.70;99.90
52979;DHT22;51106;53.186;6.598;2022-07-22T09:42:15;17.40;99.90
52979;DHT22;51106;53.186;6.598;2022-07-22T09:44:22;17.40;99.90
52979;DHT22;51106;53.186;6.598;2022-07-22T09:46:37;17.50;99.90
52979;DHT22;51106;53.186;6.598;2022-07-22T09:48:40;17.50;99.90
52979;DHT22;51106;53.186;6.598;2022-07-22T09:50:42;17.50;99.90
52979;DHT22;51106;53.186;6.598;2022-07-22T09:52:44;17.50;99.90
52979;DHT22;51106;53.186;6.598;2022-07-22T09:54:47;17.60;99.90
52979;DHT22;51106;53.186;6.598;2022-07-22T09:56:49;17.60;99.90
52979;DHT22;51106;53.186;6.598;2022-07-22T09:58:51;17.60;99.90
52979;DHT22;51106;53.186;6.598;2022-07-22T10:00:54;17.60;99.90
52979;DHT22;51106;53.186;6.598;2022-07-22T10:03:01;17.50;99.90
52979;DHT22;51106;53.186;6.598;2022-07-22T10:05:04;17.50;99.90
52979;DHT22;51106;53.186;6.598;2022-07-22T10:07:07;17.50;99.90
52979;DHT22;51106;53.186;6.598;2022-07-22T10:09:11;17.60;99.90
52979;DHT22;51106;53.186;6.598;2022-07-22T10:11:16;17.50;99.90
52979;DHT22;51106;53.186;6.598;2022-07-22T10:13:19;17.60;99.90
52979;DHT22;51106;53.186;6.598;2022-07-22T10:15:23;17.60;99.90
52979;DHT22;51106;53.186;6.598;2022-07-22T10:17:31;17.70;99.90
52979;DHT22;51106;53.186;6.598;2022-07-22T10:19:35;17.80;99.00
52979;DHT22;51106;53.186;6.598;2022-07-22T10:21:38;17.90;97.10
52979;DHT22;51106;53.186;6.598;2022-07-22T10:24:09;18.00;97.80
52979;DHT22;51106;53.186;6.598;2022-07-22T10:26:11;18.10;97.20
52979;DHT22;51106;53.186;6.598;2022-07-22T10:30:30;18.50;96.30
52979;DHT22;51106;53.186;6.598;2022-07-22T10:32:35;18.50;93.90
52979;DHT22;51106;53.186;6.598;2022-07-22T10:34:37;18.70;94.40
52979;DHT22;51106;53.186;6.598;2022-07-22T10:36:39;18.80;94.30
52979;DHT22;51106;53.186;6.598;2022-07-22T10:39:03;18.90;94.00
52979;DHT22;51106;53.186;6.598;2022-07-22T10:41:06;19.00;91.70
52979;DHT22;51106;53.186;6.598;2022-07-22T10:43:09;19.10;92.20
52979;DHT22;51106;53.186;6.598;2022-07-22T10:45:13;19.30;91.10
52979;DHT22;51106;53.186;6.598;2022-07-22T10:47:15;19.40;90.40
52979;DHT22;51106;53.186;6.598;2022-07-22T10:49:20;19.40;88.70
52979;DHT22;51106;53.186;6.598;2022-07-22T10:51:22;19.40;88.40
52979;DHT22;51106;53.186;6.598;2022-07-22T10:56:33;19.40;88.60
52979;DHT22;51106;53.186;6.598;2022-07-22T11:00:37;19.20;89.90
52979;DHT22;51106;53.186;6.598;2022-07-22T11:02:39;19.10;91.10
52979;DHT22;51106;53.186;6.598;2022-07-22T11:04:42;19.00;91.90
52979;DHT22;51106;53.186;6.598;2022-07-22T11:06:47;18.90;92.30
52979;DHT22;51106;53.186;6.598;2022-07-22T11:08:57;18.80;93.00
52979;DHT22;51106;53.186;6.598;2022-07-22T11:10:59;18.70;94.10
52979;DHT22;51106;53.186;6.598;2022-07-22T11:13:01;18.60;94.30
52979;DHT22;51106;53.186;6.598;2022-07-22T11:15:04;18.60;94.90
52979;DHT22;51106;53.186;6.598;2022-07-22T11:17:10;18.50;95.30
52979;DHT22;51106;53.186;6.598;2022-07-22T11:19:13;18.50;95.50
52979;DHT22;51106;53.186;6.598;2022-07-22T11:21:17;18.40;95.00
52979;DHT22;51106;53.186;6.598;2022-07-22T11:23:25;18.40;94.00
52979;DHT22;51106;53.186;6.598;2022-07-22T11:25:27;18.40;94.30
52979;DHT22;51106;53.186;6.598;2022-07-22T11:27:29;18.30;94.10
52979;DHT22;51106;53.186;6.598;2022-07-22T11:29:39;18.30;94.50
52979;DHT22;51106;53.186;6.598;2022-07-22T11:31:42;18.30;95.30
52979;DHT22;51106;53.186;6.598;2022-07-22T11:33:44;18.20;95.40
52979;DHT22;51106;53.186;6.598;2022-07-22T11:36:06;18.20;95.60
52979;DHT22;51106;53.186;6.598;2022-07-22T11:38:09;18.10;95.80
52979;DHT22;51106;53.186;6.598;2022-07-22T11:40:11;18.10;96.70
52979;DHT22;51106;53.186;6.598;2022-07-22T11:42:14;18.10;96.70
52979;DHT22;51106;53.186;6.598;2022-07-22T11:44:20;18.20;95.80
52979;DHT22;51106;53.186;6.598;2022-07-22T11:46:22;18.20;95.70
52979;DHT22;51106;53.186;6.598;2022-07-22T11:48:27;18.30;95.70
52979;DHT22;51106;53.186;6.598;2022-07-22T11:50:32;18.40;96.10
52979;DHT22;51106;53.186;6.598;2022-07-22T11:52:34;18.50;96.00
52979;DHT22;51106;53.186;6.598;2022-07-22T11:54:40;18.50;95.00
52979;DHT22;51106;53.186;6.598;2022-07-22T11:56:44;18.60;93.90
52979;DHT22;51106;53.186;6.598;2022-07-22T11:58:48;18.60;92.50
52979;DHT22;51106;53.186;6.598;2022-07-22T12:00:57;18.60;91.70
52979;DHT22;51106;53.186;6.598;2022-07-22T12:02:59;18.60;91.50
52979;DHT22;51106;53.186;6.598;2022-07-22T12:05:01;18.70;91.10
52979;DHT22;51106;53.186;6.598;2022-07-22T12:07:06;18.70;91.40
52979;DHT22;51106;53.186;6.598;2022-07-22T12:09:31;18.70;91.60
52979;DHT22;51106;53.186;6.598;2022-07-22T12:11:39;18.80;93.90
52979;DHT22;51106;53.186;6.598;2022-07-22T12:13:44;19.00;91.90
52979;DHT22;51106;53.186;6.598;2022-07-22T12:15:46;19.10;92.10
52979;DHT22;51106;53.186;6.598;2022-07-22T12:17:51;19.20;92.80
52979;DHT22;51106;53.186;6.598;2022-07-22T12:19:53;19.30;91.30
52979;DHT22;51106;53.186;6.598;2022-07-22T12:22:06;19.20;90.20
52979;DHT22;51106;53.186;6.598;2022-07-22T12:24:09;19.20;90.00
52979;DHT22;51106;53.186;6.598;2022-07-22T12:26:12;19.30;89.70
52979;DHT22;51106;53.186;6.598;2022-07-22T12:28:14;19.50;88.70
52979;DHT22;51106;53.186;6.598;2022-07-22T12:30:16;19.40;90.00
52979;DHT22;51106;53.186;6.598;2022-07-22T12:32:25;19.50;87.20
52979;DHT22;51106;53.186;6.598;2022-07-22T12:34:40;19.50;86.60
52979;DHT22;51106;53.186;6.598;2022-07-22T12:36:45;19.40;86.50
52979;DHT22;51106;53.186;6.598;2022-07-22T12:38:47;19.50;88.10
52979;DHT22;51106;53.186;6.598;2022-07-22T12:40:49;19.50;87.20
52979;DHT22;51106;53.186;6.598;2022-07-22T12:43:09;19.50;87.20
52979;DHT22;51106;53.186;6.598;2022-07-22T12:45:13;19.50;87.30
52979;DHT22;51106;53.186;6.598;2022-07-22T12:47:51;19.40;86.70
52979;DHT22;51106;53.186;6.598;2022-07-22T12:50:16;19.30;86.20
52979;DHT22;51106;53.186;6.598;2022-07-22T12:52:18;19.20;87.20
52979;DHT22;51106;53.186;6.598;2022-07-22T12:54:20;19.40;88.30
52979;DHT22;51106;53.186;6.598;2022-07-22T12:56:22;19.20;87.50
52979;DHT22;51106;53.186;6.598;2022-07-22T12:58:26;19.20;85.60
52979;DHT22;51106;53.186;6.598;2022-07-22T13:00:34;19.10;83.60
52979;DHT22;51106;53.186;6.598;2022-07-22T13:02:37;19.20;85.40
52979;DHT22;51106;53.186;6.598;2022-07-22T13:04:40;19.20;85.10
52979;DHT22;51106;53.186;6.598;2022-07-22T13:06:42;19.20;83.80
52979;DHT22;51106;53.186;6.598;2022-07-22T13:08:44;19.10;83.90